createdAt,value
2024-04-08T00:02:00.932Z,15.05
2024-04-08T00:04:33.067Z,18.67
2024-04-08T00:07:02.348Z,19.42
2024-04-08T00:09:34.463Z,20.42
2024-04-08T00:12:03.756Z,18.92
2024-04-08T00:14:38.866Z,20.67
2024-04-08T00:17:08.167Z,18.33
2024-04-08T00:19:40.301Z,19.65
2024-04-08T00:22:09.600Z,20.17
2024-04-08T00:24:41.871Z,21.20
2024-04-08T00:27:11.152Z,20.77
2024-04-08T00:29:46.283Z,22.63
2024-04-08T00:32:15.853Z,22.92
2024-04-08T00:34:48.809Z,22.52
2024-04-08T00:37:18.118Z,20.35
2024-04-08T00:39:50.358Z,24.35
2024-04-08T00:42:19.843Z,23.25
2024-04-08T00:44:54.901Z,18.63
2024-04-08T00:47:24.923Z,20.98
2024-04-08T00:49:57.564Z,17.42
2024-04-08T00:52:30.073Z,15.65
2024-04-08T00:54:59.581Z,17.58
2024-04-08T00:57:31.952Z,16.52
2024-04-08T01:00:04.495Z,15.68
2024-04-08T01:02:36.783Z,23.13
2024-04-08T01:05:07.844Z,17.15
2024-04-08T01:07:40.198Z,17.27
2024-04-08T01:10:10.150Z,18.02
2024-04-08T01:12:42.482Z,26.77
2024-04-08T01:15:15.025Z,25.90
2024-04-08T01:17:47.290Z,28.98
2024-04-08T01:20:16.618Z,19.70
2024-04-08T01:22:53.427Z,18.27
2024-04-08T01:25:25.670Z,22.55
2024-04-08T01:27:57.925Z,20.30
2024-04-08T01:30:27.251Z,18.75
2024-04-08T01:32:59.464Z,17.65
2024-04-08T01:35:28.849Z,25.23
2024-04-08T01:38:01.583Z,15.85
2024-04-08T01:40:33.694Z,20.52
2024-04-08T01:43:05.897Z,24.27
2024-04-08T01:45:35.189Z,23.23
2024-04-08T01:48:07.309Z,23.80
2024-04-08T01:50:36.626Z,21.48
2024-04-08T01:53:09.044Z,20.25
2024-04-08T01:55:41.225Z,20.00
2024-04-08T01:58:13.476Z,16.25
2024-04-08T02:00:42.783Z,21.55
2024-04-08T02:03:14.990Z,16.92
2024-04-08T02:05:46.880Z,17.70
2024-04-08T02:08:19.065Z,24.58
2024-04-08T02:10:53.267Z,19.00
2024-04-08T02:13:25.559Z,17.15
2024-04-08T02:15:54.879Z,19.63
2024-04-08T02:18:27.117Z,16.25
2024-04-08T02:20:56.405Z,18.15
2024-04-08T02:23:28.484Z,19.63
2024-04-08T02:26:00.636Z,19.08
2024-04-08T02:28:32.749Z,17.33
2024-04-08T02:31:04.246Z,13.95
2024-04-08T02:33:36.508Z,13.60
2024-04-08T02:36:06.562Z,13.45
2024-04-08T02:38:38.918Z,14.10
2024-04-08T02:41:11.101Z,14.75
2024-04-08T02:43:43.304Z,13.68
2024-04-08T02:46:12.543Z,17.70
2024-04-08T02:48:44.688Z,14.25
2024-04-08T02:51:14.046Z,16.20
2024-04-08T02:53:46.350Z,15.55
2024-04-08T02:56:18.603Z,16.95
2024-04-08T02:58:51.470Z,15.18
2024-04-08T03:01:21.778Z,17.15
2024-04-08T03:03:53.938Z,15.07
2024-04-08T03:06:23.262Z,15.45
2024-04-08T03:08:55.465Z,22.23
2024-04-08T03:11:27.758Z,14.93
2024-04-08T03:13:59.945Z,19.48
2024-04-08T03:16:29.326Z,18.20
2024-04-08T03:19:01.487Z,18.88
2024-04-08T03:21:30.847Z,17.73
2024-04-08T03:24:02.919Z,20.33
2024-04-08T03:26:35.111Z,17.65
2024-04-08T03:29:07.844Z,23.63
2024-04-08T03:31:39.091Z,18.77
2024-04-08T03:34:11.249Z,24.80
2024-04-08T03:36:40.574Z,20.85
2024-04-08T03:39:12.712Z,19.73
2024-04-08T03:41:47.737Z,28.83
2024-04-08T03:44:19.876Z,27.30
2024-04-08T03:46:54.092Z,29.80
2024-04-08T03:49:23.389Z,26.13
2024-04-08T03:51:55.535Z,22.05
2024-04-08T03:54:24.817Z,22.83
2024-04-08T03:56:59.811Z,22.75
2024-04-08T03:59:29.104Z,26.77
2024-04-08T04:02:01.176Z,26.25
2024-04-08T04:04:30.384Z,29.80
2024-04-08T04:07:02.470Z,19.70
2024-04-08T04:09:31.782Z,16.35
2024-04-08T04:12:06.835Z,28.88
2024-04-08T04:14:36.138Z,20.10
2024-04-08T04:17:08.442Z,17.60
2024-04-08T04:19:37.762Z,17.05
2024-04-08T04:22:10.130Z,21.90
2024-04-08T04:24:39.390Z,15.98
2024-04-08T04:27:14.335Z,20.02
2024-04-08T04:29:43.712Z,18.33
2024-04-08T04:32:15.880Z,18.63
2024-04-08T04:34:47.944Z,14.60
2024-04-08T04:37:17.253Z,20.35
2024-04-08T04:39:49.433Z,22.75
2024-04-08T04:42:21.963Z,18.92
2024-04-08T04:44:55.858Z,20.33
2024-04-08T04:47:25.221Z,18.83
2024-04-08T04:49:57.443Z,22.17
2024-04-08T04:52:26.742Z,19.95
2024-04-08T04:54:58.802Z,17.80
2024-04-08T04:57:30.935Z,22.10
2024-04-08T05:00:03.143Z,17.75
2024-04-08T05:02:32.386Z,22.52
2024-04-08T05:05:04.623Z,16.88
2024-04-08T05:07:33.883Z,22.02
2024-04-08T05:10:06.043Z,19.02
2024-04-08T05:12:38.414Z,21.85
2024-04-08T05:15:10.965Z,21.67
2024-04-08T05:17:40.571Z,22.08
2024-04-08T05:20:13.532Z,19.87
2024-04-08T05:22:48.503Z,16.70
2024-04-08T05:25:20.787Z,21.83
2024-04-08T05:27:52.965Z,21.60
2024-04-08T05:30:25.185Z,15.25
2024-04-08T05:35:42.377Z,18.05
2024-04-08T05:38:11.740Z,15.30
2024-04-08T05:40:44.681Z,18.98
2024-04-08T05:45:56.116Z,21.15
2024-04-08T05:48:25.484Z,15.32
2024-04-08T05:50:57.665Z,21.80
2024-04-08T05:53:27.337Z,15.82
2024-04-08T05:55:59.612Z,16.03
2024-04-08T05:58:28.986Z,14.95
2024-04-08T06:01:04.105Z,15.52
2024-04-08T06:03:33.542Z,19.35
2024-04-08T06:06:08.389Z,24.25
2024-04-08T06:08:37.701Z,10.80
2024-04-08T06:11:10.316Z,16.98
2024-04-08T06:13:39.614Z,13.25
2024-04-08T06:16:14.709Z,19.17
2024-04-08T06:18:44.092Z,16.77
2024-04-08T06:21:16.223Z,14.05
2024-04-08T06:23:45.520Z,21.33
2024-04-08T06:26:17.655Z,20.50
2024-04-08T06:28:47.057Z,13.95
2024-04-08T06:31:22.308Z,16.08
2024-04-08T06:33:51.637Z,15.02
2024-04-08T06:36:26.533Z,9.82
2024-04-08T06:38:55.885Z,18.02
2024-04-08T06:41:28.118Z,19.50
2024-04-08T06:43:57.472Z,17.88
2024-04-08T06:46:32.554Z,18.73
2024-04-08T06:49:01.920Z,18.17
2024-04-08T06:51:34.076Z,18.40
2024-04-08T06:54:03.421Z,11.23
2024-04-08T06:56:35.590Z,12.82
2024-04-08T06:59:04.856Z,13.68
2024-04-08T07:01:39.880Z,22.80
2024-04-08T07:04:09.093Z,21.30
2024-04-08T07:06:41.299Z,14.10
2024-04-08T07:09:11.518Z,17.88
2024-04-08T07:11:43.803Z,18.42
2024-04-08T07:14:13.784Z,16.00
2024-04-08T07:16:50.651Z,24.35
2024-04-08T07:19:19.940Z,23.42
2024-04-08T07:21:54.711Z,19.27
2024-04-08T07:24:25.668Z,16.00
2024-04-08T07:26:57.863Z,18.00
2024-04-08T07:29:27.261Z,27.13
2024-04-08T07:32:02.255Z,17.80
2024-04-08T07:34:31.667Z,17.27
2024-04-08T07:37:03.765Z,25.15
2024-04-08T07:39:37.193Z,18.42
2024-04-08T07:42:11.446Z,24.67
2024-04-08T07:44:40.726Z,22.38
2024-04-08T07:47:15.816Z,19.52
2024-04-08T07:49:48.008Z,27.80
2024-04-08T07:52:20.166Z,20.55
2024-04-08T07:54:51.943Z,20.30
2024-04-08T07:57:24.307Z,21.77
2024-04-08T07:59:54.541Z,20.48
2024-04-08T08:02:31.618Z,18.38
2024-04-08T08:05:00.939Z,21.58
2024-04-08T08:07:33.071Z,17.95
2024-04-08T08:10:05.194Z,19.10
2024-04-08T08:12:37.344Z,14.48
2024-04-08T08:15:09.919Z,25.27
2024-04-08T08:17:45.070Z,22.70
2024-04-08T08:20:17.284Z,16.70
2024-04-08T08:22:50.699Z,20.45
2024-04-08T08:25:22.858Z,15.07
2024-04-08T08:27:54.926Z,21.13
2024-04-08T08:30:27.204Z,20.70
2024-04-08T08:33:02.259Z,23.23
2024-04-08T08:35:34.628Z,22.58
2024-04-08T08:38:04.202Z,20.88
2024-04-08T08:40:37.195Z,18.55
2024-04-08T08:43:10.878Z,21.17
2024-04-08T08:45:48.559Z,22.83
2024-04-08T08:48:23.922Z,23.30
2024-04-08T08:50:53.971Z,30.00
2024-04-08T08:53:26.192Z,26.35
2024-04-08T08:56:00.430Z,26.58
2024-04-08T08:58:33.005Z,26.50
2024-04-08T09:01:04.684Z,26.52
2024-04-08T09:03:40.628Z,45.45
2024-04-08T09:06:12.834Z,27.15
2024-04-08T09:08:45.270Z,27.48
2024-04-08T09:11:14.698Z,29.60
2024-04-08T09:13:46.913Z,24.90
2024-04-08T09:16:24.033Z,30.50
2024-04-08T09:18:59.004Z,23.50
2024-04-08T09:21:28.402Z,22.27
2024-04-08T09:24:08.563Z,25.08
2024-04-08T09:26:38.114Z,25.40
2024-04-08T09:29:10.287Z,21.13
2024-04-08T09:31:39.786Z,29.23
2024-04-08T09:34:15.212Z,24.55
2024-04-08T09:36:45.761Z,26.88
2024-04-08T09:39:18.555Z,33.17
2024-04-08T09:41:48.457Z,24.15
2024-04-08T09:44:22.733Z,28.48
2024-04-08T09:46:54.031Z,28.55
2024-04-08T09:49:41.566Z,33.45
2024-04-08T09:52:16.444Z,29.75
2024-04-08T09:54:48.599Z,28.65
2024-04-08T09:57:19.186Z,27.02
2024-04-08T09:59:55.912Z,34.30
2024-04-08T10:02:32.849Z,47.60
2024-04-08T10:05:10.005Z,38.78
2024-04-08T10:07:39.948Z,36.88
2024-04-08T10:12:43.978Z,26.25
2024-04-08T10:15:16.757Z,24.65
2024-04-08T10:17:47.076Z,27.58
2024-04-08T10:20:25.085Z,46.15
2024-04-08T10:22:54.791Z,54.50
2024-04-08T10:25:45.102Z,48.00
2024-04-08T10:28:18.828Z,45.70
2024-04-08T10:30:52.905Z,46.88
2024-04-08T10:33:25.651Z,29.55
2024-04-08T10:35:58.337Z,43.78
2024-04-08T10:38:32.208Z,29.02
2024-04-08T10:41:08.165Z,28.55
2024-04-08T10:43:40.719Z,35.03
2024-04-08T10:46:16.219Z,32.92
2024-04-08T10:48:48.444Z,30.90
2024-04-08T10:51:20.837Z,30.27
2024-04-08T10:53:53.098Z,36.58
2024-04-08T10:56:23.123Z,32.17
2024-04-08T10:58:56.933Z,34.72
2024-04-08T11:01:27.311Z,44.72
2024-04-08T11:04:02.278Z,39.28
2024-04-08T11:06:35.338Z,38.72
2024-04-08T11:09:10.925Z,39.75
2024-04-08T11:11:40.311Z,37.88
2024-04-08T11:14:12.625Z,49.60
2024-04-08T11:16:41.890Z,43.60
2024-04-08T11:19:16.700Z,45.13
2024-04-08T11:21:48.846Z,39.05
2024-04-08T11:24:21.105Z,38.85
2024-04-08T11:26:58.899Z,40.70
2024-04-08T11:29:34.657Z,54.28
2024-04-08T11:32:03.967Z,47.05
2024-04-08T11:34:36.147Z,36.33
2024-04-08T11:37:10.515Z,43.63
2024-04-08T11:39:43.045Z,53.67
2024-04-08T11:42:12.917Z,45.35
2024-04-08T11:44:47.359Z,45.25
2024-04-08T11:47:20.116Z,40.08
2024-04-08T11:49:52.790Z,41.97
2024-04-08T11:52:25.106Z,38.20
2024-04-08T11:55:01.456Z,35.95
2024-04-08T11:57:32.685Z,31.85
2024-04-08T12:00:05.709Z,41.38
2024-04-08T12:02:35.282Z,38.15
2024-04-08T12:05:07.751Z,40.55
2024-04-08T12:07:42.569Z,38.33
2024-04-08T12:10:16.587Z,41.78
2024-04-08T12:12:45.822Z,38.75
2024-04-08T12:15:22.025Z,38.35
2024-04-08T12:17:51.887Z,46.25
2024-04-08T12:22:56.274Z,37.28
2024-04-08T12:25:28.493Z,42.42
2024-04-08T12:28:04.176Z,45.35
2024-04-08T12:30:38.248Z,33.97
2024-04-08T12:33:08.010Z,38.55
2024-04-08T12:38:15.715Z,40.13
2024-04-08T12:40:45.854Z,44.92
2024-04-08T12:43:18.277Z,47.83
2024-04-08T12:45:48.264Z,41.75
2024-04-08T12:48:20.518Z,46.53
2024-04-08T12:50:50.086Z,43.95
2024-04-08T12:53:25.679Z,45.92
2024-04-08T12:55:55.792Z,46.38
2024-04-08T12:58:28.198Z,46.47
2024-04-08T13:00:58.207Z,45.42
2024-04-08T13:03:30.774Z,36.90
2024-04-08T13:06:00.450Z,42.17
2024-04-08T13:11:06.025Z,40.78
2024-04-08T13:13:46.876Z,43.50
2024-04-08T13:16:18.221Z,45.53
2024-04-08T13:18:52.120Z,42.20
2024-04-08T13:21:28.471Z,43.92
2024-04-08T13:24:06.000Z,40.97
2024-04-08T13:26:39.265Z,41.38
2024-04-08T13:29:11.775Z,41.15
2024-04-08T13:31:49.940Z,42.22
2024-04-08T13:34:22.315Z,40.30
2024-04-08T13:36:51.944Z,40.92
2024-04-08T13:39:27.002Z,45.25
2024-04-08T13:41:56.385Z,37.53
2024-04-08T13:44:28.503Z,48.42
2024-04-08T13:46:59.639Z,39.28
2024-04-08T13:49:31.847Z,45.17
2024-04-08T13:52:06.594Z,45.70
2024-04-08T13:54:43.085Z,40.47
2024-04-08T13:57:12.448Z,35.60
2024-04-08T13:59:44.644Z,31.48
2024-04-08T14:02:14.246Z,33.70
2024-04-08T14:04:46.440Z,32.08
2024-04-08T14:07:15.799Z,35.40
2024-04-08T14:09:50.886Z,29.15
2024-04-08T14:12:20.315Z,30.75
2024-04-08T14:14:52.607Z,32.00
2024-04-08T14:17:21.884Z,29.73
2024-04-08T14:19:54.044Z,27.83
2024-04-08T14:22:23.490Z,28.73
2024-04-08T14:24:59.251Z,30.67
2024-04-08T14:27:28.658Z,40.20
2024-04-08T14:30:01.666Z,21.30
2024-04-08T14:32:32.230Z,25.85
2024-04-08T14:35:04.486Z,28.83
2024-04-08T14:37:51.209Z,24.25
2024-04-08T14:40:32.539Z,26.00
2024-04-08T14:43:04.046Z,33.53
2024-04-08T14:45:37.944Z,29.52
2024-04-08T14:48:09.094Z,31.50
2024-04-08T14:50:41.274Z,38.47
2024-04-08T14:53:10.853Z,28.55
2024-04-08T14:55:46.415Z,26.88
2024-04-08T14:58:16.322Z,30.50
2024-04-08T15:00:49.509Z,29.40
2024-04-08T15:03:18.939Z,30.17
2024-04-08T15:05:51.282Z,28.00
2024-04-08T15:08:20.681Z,32.30
2024-04-08T15:11:05.639Z,28.95
2024-04-08T15:13:35.020Z,23.27
2024-04-08T15:16:07.205Z,27.02
2024-04-08T15:18:42.698Z,25.48
2024-04-08T15:21:14.938Z,31.98
2024-04-08T15:23:44.250Z,27.38
2024-04-08T15:26:19.268Z,27.15
2024-04-08T15:28:49.443Z,25.25
2024-04-08T15:31:21.646Z,25.42
2024-04-08T15:33:51.158Z,29.17
2024-04-08T15:36:23.638Z,27.63
2024-04-08T15:38:53.048Z,30.27
2024-04-08T15:41:28.152Z,38.50
2024-04-08T15:43:57.962Z,36.33
2024-04-08T15:46:32.931Z,22.23
2024-04-08T15:49:03.243Z,33.65
2024-04-08T15:51:36.110Z,19.73
2024-04-08T15:54:08.776Z,20.92
2024-04-08T15:56:43.915Z,20.58
2024-04-08T15:59:13.203Z,23.48
2024-04-08T16:01:45.419Z,19.98
2024-04-08T16:04:14.995Z,24.52
2024-04-08T16:06:47.465Z,18.92
2024-04-08T16:09:17.261Z,22.25
2024-04-08T16:11:52.636Z,18.80
2024-04-08T16:14:22.098Z,21.48
2024-04-08T16:16:56.227Z,23.65
2024-04-08T16:19:25.569Z,25.88
2024-04-08T16:21:58.225Z,25.00
2024-04-08T16:24:27.581Z,26.02
2024-04-08T16:27:02.641Z,28.55
2024-04-08T16:29:31.933Z,27.67
2024-04-08T16:32:04.139Z,29.25
2024-04-08T16:34:34.041Z,30.10
2024-04-08T16:37:07.386Z,32.95
2024-04-08T16:39:36.704Z,34.90
2024-04-08T16:42:12.247Z,33.03
2024-04-08T16:44:44.980Z,39.95
2024-04-08T16:47:18.063Z,28.73
2024-04-08T16:49:47.634Z,24.60
2024-04-08T16:52:19.717Z,21.90
2024-04-08T16:54:49.028Z,19.95
2024-04-08T16:57:24.345Z,30.08
2024-04-08T16:59:53.670Z,21.50
2024-04-08T17:02:26.070Z,21.80
2024-04-08T17:04:55.634Z,19.35
2024-04-08T17:07:29.601Z,22.83
2024-04-08T17:10:00.425Z,26.10
2024-04-08T17:12:38.819Z,24.05
2024-04-08T17:15:09.151Z,20.27
2024-04-08T17:17:45.967Z,19.67
2024-04-08T17:20:16.686Z,23.42
2024-04-08T17:22:53.538Z,18.60
2024-04-08T17:25:23.118Z,20.05
2024-04-08T17:27:58.126Z,15.30
2024-04-08T17:30:27.453Z,18.25
2024-04-08T17:32:59.875Z,16.67
2024-04-08T17:35:29.358Z,16.42
2024-04-08T17:38:01.560Z,18.65
2024-04-08T17:40:32.973Z,20.73
2024-04-08T17:43:08.300Z,18.80
2024-04-08T17:45:37.567Z,20.10
2024-04-08T17:48:11.496Z,12.90
2024-04-08T17:50:48.672Z,18.60
2024-04-08T17:53:20.806Z,16.95
2024-04-08T17:55:57.973Z,17.13
2024-04-08T17:58:34.036Z,20.02
2024-04-08T18:01:09.174Z,16.23
2024-04-08T18:03:42.173Z,14.57
2024-04-08T18:06:12.348Z,13.30
2024-04-08T18:08:45.939Z,12.60
2024-04-08T18:11:15.838Z,17.70
2024-04-08T18:13:50.921Z,15.32
2024-04-08T18:16:21.253Z,9.77
2024-04-08T18:18:54.522Z,9.43
2024-04-08T18:21:24.922Z,9.65
2024-04-08T18:23:57.259Z,12.65
2024-04-08T18:26:26.604Z,8.52
2024-04-08T18:29:01.655Z,11.60
2024-04-08T18:31:30.927Z,11.90
2024-04-08T18:34:04.130Z,11.05
2024-04-08T18:36:33.470Z,12.30
2024-04-08T18:39:07.813Z,9.25
2024-04-08T18:41:37.227Z,6.90
2024-04-08T18:44:14.238Z,9.55
2024-04-08T18:46:43.569Z,8.52
2024-04-08T18:49:15.857Z,6.80
2024-04-08T18:51:45.509Z,7.35
2024-04-08T18:54:17.812Z,8.95
2024-04-08T18:56:47.263Z,8.57
2024-04-08T18:59:22.291Z,4.45
2024-04-08T19:01:51.634Z,5.00
2024-04-08T19:04:24.011Z,5.93
2024-04-08T19:06:53.442Z,7.25
2024-04-08T19:09:25.642Z,6.78
2024-04-08T19:11:55.156Z,6.30
2024-04-08T19:14:30.365Z,5.22
2024-04-08T19:16:59.734Z,7.45
2024-04-08T19:19:32.477Z,6.05
2024-04-08T19:22:01.946Z,8.85
2024-04-08T19:24:34.391Z,5.80
2024-04-08T19:27:05.095Z,6.05
2024-04-08T19:29:40.156Z,8.05
2024-04-08T19:32:09.669Z,9.43
2024-04-08T19:34:41.771Z,7.32
2024-04-08T19:37:11.097Z,7.57
2024-04-08T19:39:43.727Z,10.05
2024-04-08T19:42:13.035Z,5.47
2024-04-08T19:44:48.111Z,5.43
2024-04-08T19:47:17.663Z,5.93
2024-04-08T19:49:50.409Z,5.40
2024-04-08T19:52:19.972Z,19.98
2024-04-08T19:54:56.622Z,13.40
2024-04-08T19:57:26.001Z,7.80
2024-04-08T20:00:01.289Z,7.75
2024-04-08T20:02:32.880Z,8.23
2024-04-08T20:05:05.012Z,6.63
2024-04-08T20:07:34.279Z,7.75
2024-04-08T20:10:07.621Z,8.40
2024-04-08T20:12:37.059Z,7.40
2024-04-08T20:15:12.705Z,8.43
2024-04-08T20:17:42.048Z,7.40
2024-04-08T20:20:17.654Z,6.65
2024-04-08T20:22:46.918Z,13.48
2024-04-08T20:25:19.202Z,6.60
2024-04-08T20:27:48.514Z,9.48
2024-04-08T20:30:23.502Z,7.50
2024-04-08T20:32:52.906Z,8.25
2024-04-08T20:35:25.114Z,13.20
2024-04-08T20:37:54.660Z,10.93
2024-04-08T20:40:26.765Z,6.68
2024-04-08T20:42:58.298Z,5.88
2024-04-08T20:45:38.868Z,12.60
2024-04-08T20:48:08.728Z,13.82
2024-04-08T20:53:09.588Z,9.55
2024-04-08T20:55:41.748Z,8.93
2024-04-08T20:58:11.072Z,5.65
2024-04-08T21:00:46.510Z,10.40
2024-04-08T21:03:15.874Z,6.38
2024-04-08T21:05:48.262Z,6.53
2024-04-08T21:08:17.691Z,12.65
2024-04-08T21:10:49.877Z,6.10
2024-04-08T21:13:19.228Z,11.30
2024-04-08T21:15:59.477Z,11.18
2024-04-08T21:18:29.730Z,7.43
2024-04-08T21:21:05.380Z,8.52
2024-04-08T21:23:35.446Z,5.28
2024-04-08T21:26:12.430Z,8.25
2024-04-08T21:28:43.357Z,7.30
2024-04-08T21:31:19.267Z,11.90
2024-04-08T21:33:50.365Z,9.40
2024-04-08T21:36:23.489Z,7.82
2024-04-08T21:38:53.603Z,6.53
2024-04-08T21:41:25.780Z,7.25
2024-04-08T21:43:55.048Z,9.35
2024-04-08T21:46:30.021Z,12.63
2024-04-08T21:48:59.408Z,8.15
2024-04-08T21:51:31.730Z,11.57
2024-04-08T21:54:01.262Z,7.72
2024-04-08T21:56:33.651Z,6.22
2024-04-08T21:59:02.959Z,9.73
2024-04-08T22:01:38.043Z,6.95
2024-04-08T22:04:07.615Z,7.20
2024-04-08T22:06:39.823Z,6.05
2024-04-08T22:09:10.689Z,5.65
2024-04-08T22:11:42.860Z,7.32
2024-04-08T22:14:12.291Z,8.07
2024-04-08T22:16:47.410Z,4.65
2024-04-08T22:19:16.845Z,8.90
2024-04-08T22:21:48.992Z,8.85
2024-04-08T22:24:18.325Z,6.03
2024-04-08T22:26:50.481Z,4.65
2024-04-08T22:29:19.804Z,5.57
2024-04-08T22:31:54.891Z,4.95
2024-04-08T22:34:24.482Z,5.55
2024-04-08T22:36:56.744Z,6.38
2024-04-08T22:39:26.039Z,6.38
2024-04-08T22:41:58.307Z,5.97
2024-04-08T22:44:27.637Z,4.72
2024-04-08T22:47:02.680Z,6.15
2024-04-08T22:49:32.053Z,6.25
2024-04-08T22:52:04.836Z,3.42
2024-04-08T22:54:34.369Z,6.60
2024-04-08T22:57:06.683Z,3.63
2024-04-08T22:59:36.100Z,3.78
2024-04-08T23:02:11.104Z,7.47
2024-04-08T23:04:41.214Z,5.10
2024-04-08T23:07:13.486Z,6.73
2024-04-08T23:09:43.212Z,4.22
2024-04-08T23:12:16.060Z,6.43
2024-04-08T23:14:45.370Z,5.93
2024-04-08T23:17:20.833Z,7.78
2024-04-08T23:19:50.145Z,8.95
2024-04-08T23:22:22.315Z,10.00
2024-04-08T23:24:51.572Z,8.15
2024-04-08T23:27:23.818Z,4.03
2024-04-08T23:29:53.268Z,5.50
2024-04-08T23:32:28.315Z,4.28
2024-04-08T23:34:58.119Z,5.20
2024-04-08T23:39:58.944Z,6.35
2024-04-08T23:42:31.175Z,2.85
2024-04-08T23:45:00.745Z,5.80
2024-04-08T23:47:36.040Z,5.03
2024-04-08T23:50:05.880Z,4.10
2024-04-08T23:52:38.060Z,5.50
2024-04-08T23:55:09.208Z,4.68
2024-04-08T23:57:41.496Z,4.15
